Time;durP1;ratioP1;P1;durP2;ratioP2;P2;SDS_P1;SDS_P2;PMS_P1;PMS_P2;Temp;Humidity;BMP_temperature;BMP_pressure;BME280_temperature;BME280_humidity;BME280_pressure;Samples;Min_cycle;Max_cycle;Signal;HPM_P1;HPM_P2
2022/04/05 00:01:21;;;;;;;3.42;0.80;;;12.50;99.90;;;;;;4967642;28;20133;-57
2022/04/05 00:03:48;;;;;;;1.63;0.77;;;12.50;99.90;;;;;;4977134;28;20403;-58
2022/04/05 00:06:15;;;;;;;0.60;0.60;;;12.50;99.90;;;;;;4982630;28;20672;-58
2022/04/05 00:08:41;;;;;;;2.80;0.80;;;12.50;99.90;;;;;;4985837;28;20047;-58
2022/04/05 00:11:08;;;;;;;0.90;0.65;;;12.50;99.90;;;;;;4990931;28;20082;-58
2022/04/05 00:13:35;;;;;;;4.65;0.77;;;12.50;99.90;;;;;;4972585;28;20082;-57
2022/04/05 00:16:02;;;;;;;1.08;0.60;;;12.40;99.90;;;;;;4978953;28;20516;-56
2022/04/05 00:18:28;;;;;;;1.15;0.77;;;12.40;99.90;;;;;;4990079;28;20153;-55
2022/04/05 00:20:55;;;;;;;1.35;0.70;;;12.40;99.90;;;;;;4981352;28;20490;-57
2022/04/05 00:23:22;;;;;;;2.95;0.80;;;12.40;99.90;;;;;;4970467;28;20172;-56
2022/04/05 00:25:49;;;;;;;1.85;0.70;;;12.40;99.90;;;;;;4976099;28;20043;-56
2022/04/05 00:28:16;;;;;;;1.40;0.60;;;12.40;99.90;;;;;;4989892;28;20114;-57
2022/04/05 00:30:43;;;;;;;2.58;0.60;;;12.40;99.90;;;;;;4985314;28;20137;-57
2022/04/05 00:33:10;;;;;;;1.48;0.60;;;12.40;99.90;;;;;;4970322;28;20105;-57
2022/04/05 00:35:37;;;;;;;2.85;1.25;;;12.40;99.90;;;;;;4980259;28;20471;-56
2022/04/05 00:38:03;;;;;;;1.15;0.80;;;12.40;99.90;;;;;;4972061;28;20088;-55
2022/04/05 00:40:30;;;;;;;0.88;0.70;;;12.30;99.90;;;;;;4981090;28;20078;-55
2022/04/05 00:42:58;;;;;;;2.92;0.55;;;12.20;99.90;;;;;;4985352;28;20540;-56
2022/04/05 00:45:25;;;;;;;0.88;0.65;;;12.20;99.90;;;;;;4985393;28;20046;-58
2022/04/05 00:47:54;;;;;;;1.63;1.00;;;12.10;99.90;;;;;;4976185;28;20479;-56
2022/04/05 00:50:22;;;;;;;0.60;0.50;;;12.10;99.90;;;;;;4974030;28;20058;-56
2022/04/05 00:52:49;;;;;;;1.65;0.70;;;12.00;99.90;;;;;;4981489;28;20042;-52
2022/04/05 00:55:19;;;;;;;0.90;0.60;;;12.10;99.90;;;;;;4977671;28;20072;-56
2022/04/05 00:57:46;;;;;;;1.05;0.55;;;12.00;99.90;;;;;;4962513;28;20715;-56
2022/04/05 01:00:14;;;;;;;0.90;0.50;;;11.90;99.90;;;;;;4630593;28;9999763;-57
2022/04/05 01:02:41;;;;;;;0.95;0.68;;;12.00;99.90;;;;;;4978249;28;20055;-57
2022/04/05 01:05:08;;;;;;;0.82;0.68;;;11.90;99.90;;;;;;4953114;28;20047;-53
2022/04/05 01:07:35;;;;;;;1.38;0.55;;;11.90;99.90;;;;;;4978545;28;20050;-56
2022/04/05 01:10:04;;;;;;;1.23;0.75;;;11.90;99.90;;;;;;4987736;28;20142;-56
2022/04/05 01:12:31;;;;;;;0.98;0.50;;;11.80;99.90;;;;;;4983708;28;20077;-57
2022/04/05 01:14:57;;;;;;;1.17;0.50;;;11.90;99.90;;;;;;4989138;28;20137;-56
2022/04/05 01:17:24;;;;;;;1.67;0.50;;;11.80;99.90;;;;;;4989815;28;20684;-62
2022/04/05 01:19:52;;;;;;;1.30;0.80;;;11.80;99.90;;;;;;4987516;28;20046;-57
2022/04/05 01:22:19;;;;;;;0.93;0.65;;;11.80;99.90;;;;;;4984730;28;20085;-55
2022/04/05 01:24:45;;;;;;;5.18;0.60;;;11.80;99.90;;;;;;4969817;28;20081;-56
2022/04/05 01:27:19;;;;;;;0.80;0.70;;;11.80;99.90;;;;;;4973563;28;20051;-56
2022/04/05 01:29:47;;;;;;;2.10;0.80;;;11.80;99.90;;;;;;4987364;28;20092;-55
2022/04/05 01:32:14;;;;;;;2.58;0.70;;;11.70;99.90;;;;;;4984844;28;20085;-54
2022/04/05 01:34:41;;;;;;;1.38;0.80;;;11.70;99.90;;;;;;4973305;28;20058;-54
2022/04/05 01:37:10;;;;;;;2.85;0.80;;;11.60;99.90;;;;;;4982345;28;20592;-55
2022/04/05 01:39:38;;;;;;;2.40;0.90;;;11.60;99.90;;;;;;4974865;28;20047;-54
2022/04/05 01:42:06;;;;;;;1.15;0.80;;;11.50;99.90;;;;;;4956643;28;20113;-56
2022/04/05 01:44:34;;;;;;;2.97;1.10;;;11.50;99.90;;;;;;4981020;28;20092;-56
2022/04/05 01:47:11;;;;;;;1.02;0.80;;;11.50;99.90;;;;;;4983944;28;20085;-55
2022/04/05 01:49:38;;;;;;;2.95;1.08;;;11.40;99.90;;;;;;4977689;28;20138;-52
2022/04/05 01:52:05;;;;;;;2.20;1.10;;;11.40;99.90;;;;;;4957121;28;20084;-56
2022/04/05 01:54:32;;;;;;;1.60;1.10;;;11.40;99.90;;;;;;4970088;28;20046;-57
2022/04/05 01:56:59;;;;;;;2.97;1.20;;;11.30;99.90;;;;;;4968375;28;20057;-57
2022/04/05 01:59:27;;;;;;;4.90;1.88;;;11.30;99.90;;;;;;4968981;28;20054;-56
2022/04/05 02:01:54;;;;;;;4.82;1.27;;;11.30;99.90;;;;;;4986684;28;20069;-51
2022/04/05 02:04:21;;;;;;;1.60;1.20;;;11.30;99.90;;;;;;4979467;28;20593;-55
2022/04/05 02:06:48;;;;;;;1.60;1.00;;;11.30;99.90;;;;;;4968478;28;20834;-58
2022/04/05 02:09:15;;;;;;;4.45;1.33;;;11.30;99.90;;;;;;4975035;28;20074;-57
2022/04/05 02:11:43;;;;;;;1.85;1.58;;;11.40;99.90;;;;;;4988128;28;20081;-56
2022/04/05 02:14:10;;;;;;;3.40;1.42;;;11.40;99.90;;;;;;4983321;28;20105;-56
2022/04/05 02:16:37;;;;;;;5.70;1.70;;;11.40;99.90;;;;;;4968772;28;20487;-53
2022/04/05 02:19:04;;;;;;;3.88;1.52;;;11.40;99.90;;;;;;4972492;28;20058;-55
2022/04/05 02:21:31;;;;;;;3.38;1.67;;;11.40;99.90;;;;;;4986155;28;20046;-56
2022/04/05 02:23:58;;;;;;;4.40;1.40;;;11.40;99.90;;;;;;4982666;28;20081;-55
2022/04/05 02:26:25;;;;;;;3.67;1.80;;;11.40;99.90;;;;;;4971847;28;20082;-53
2022/04/05 02:28:52;;;;;;;2.13;1.05;;;11.40;99.90;;;;;;4971796;28;20486;-55
2022/04/05 02:31:19;;;;;;;1.92;1.08;;;11.40;99.90;;;;;;4981970;28;20617;-55
2022/04/05 02:33:46;;;;;;;1.45;1.30;;;11.40;99.90;;;;;;4983157;28;20486;-54
2022/04/05 02:36:12;;;;;;;1.48;1.15;;;11.40;99.90;;;;;;4986168;28;20560;-54
2022/04/05 02:38:39;;;;;;;2.08;1.05;;;11.40;99.90;;;;;;4983752;28;20243;-55
2022/04/05 02:41:06;;;;;;;2.13;1.02;;;11.40;99.90;;;;;;4978856;28;20468;-55
2022/04/05 02:43:34;;;;;;;1.98;0.93;;;11.50;99.90;;;;;;4952359;28;20086;-57
2022/04/05 02:46:01;;;;;;;1.95;1.08;;;11.50;99.90;;;;;;4997184;28;20046;-55
2022/04/05 02:48:27;;;;;;;1.52;1.05;;;11.50;99.90;;;;;;4987069;28;20054;-56
2022/04/05 02:50:54;;;;;;;1.75;1.42;;;11.50;99.90;;;;;;4979308;28;20138;-57
2022/04/05 02:53:21;;;;;;;2.10;1.08;;;11.50;99.90;;;;;;4968952;28;20146;-57
2022/04/05 02:55:48;;;;;;;2.85;1.30;;;11.50;99.90;;;;;;4980107;28;20046;-54
2022/04/05 02:58:15;;;;;;;2.45;1.20;;;11.40;99.90;;;;;;4968021;28;20589;-56
2022/04/05 03:00:42;;;;;;;2.67;1.50;;;11.40;99.90;;;;;;4980207;28;20042;-56
2022/04/05 03:03:09;;;;;;;4.72;1.10;;;11.40;99.90;;;;;;4977589;28;20054;-55
2022/04/05 03:05:36;;;;;;;1.55;1.10;;;11.40;99.90;;;;;;4970255;28;20051;-55
2022/04/05 03:08:04;;;;;;;3.45;1.35;;;11.40;99.90;;;;;;4969408;28;20082;-56
2022/04/05 03:10:32;;;;;;;1.30;1.10;;;11.40;99.90;;;;;;4971873;28;20080;-54
2022/04/05 03:13:00;;;;;;;1.13;1.02;;;11.40;99.90;;;;;;4986282;28;20072;-57
2022/04/05 03:15:27;;;;;;;1.95;1.13;;;11.50;99.90;;;;;;4987153;28;20092;-55
2022/04/05 03:17:58;;;;;;;3.67;1.00;;;11.40;99.90;;;;;;4977182;28;20047;-56
2022/04/05 03:20:25;;;;;;;2.28;1.60;;;11.40;99.90;;;;;;4975858;28;20051;-52
2022/04/05 03:22:53;;;;;;;1.35;0.90;;;11.40;99.90;;;;;;4983063;28;20054;-57
2022/04/05 03:25:21;;;;;;;3.03;1.70;;;11.40;99.90;;;;;;4987054;28;20338;-54
2022/04/05 03:27:48;;;;;;;3.00;1.80;;;11.40;99.90;;;;;;4980580;28;20387;-56
2022/04/05 03:30:15;;;;;;;2.50;1.63;;;11.40;99.90;;;;;;4971637;28;20042;-55
2022/04/05 03:32:42;;;;;;;5.22;2.00;;;11.40;99.90;;;;;;4971608;28;20104;-55
2022/04/05 03:35:09;;;;;;;3.33;1.85;;;11.30;99.90;;;;;;4988713;28;20050;-54
2022/04/05 03:37:36;;;;;;;2.97;1.60;;;11.30;99.90;;;;;;4979450;28;20058;-56
2022/04/05 03:40:04;;;;;;;2.53;1.48;;;11.30;99.90;;;;;;4970758;28;20121;-55
2022/04/05 03:42:31;;;;;;;2.85;1.90;;;11.30;99.90;;;;;;4973077;28;20088;-56
2022/04/05 03:44:57;;;;;;;2.35;1.65;;;11.30;99.90;;;;;;4990582;28;20049;-55
2022/04/05 03:47:26;;;;;;;2.95;1.52;;;11.30;99.90;;;;;;4984780;28;20054;-58
2022/04/05 03:49:53;;;;;;;2.75;1.75;;;11.30;99.90;;;;;;4970894;28;20090;-56
2022/04/05 03:52:20;;;;;;;3.80;1.85;;;11.40;99.90;;;;;;4969621;28;20094;-56
2022/04/05 03:54:47;;;;;;;2.05;1.50;;;11.40;99.90;;;;;;4983525;28;20074;-55
2022/04/05 03:57:14;;;;;;;3.50;1.40;;;11.40;99.90;;;;;;4972969;28;20049;-56
2022/04/05 03:59:41;;;;;;;3.95;1.77;;;11.40;99.90;;;;;;4973522;28;20421;-57
2022/04/05 04:02:08;;;;;;;2.75;1.60;;;11.40;99.90;;;;;;4973981;28;20133;-57
2022/04/05 04:04:35;;;;;;;5.03;1.65;;;11.30;99.90;;;;;;4971854;28;20140;-53
2022/04/05 04:07:02;;;;;;;3.13;1.40;;;11.30;99.90;;;;;;4984952;28;20121;-56
2022/04/05 04:09:28;;;;;;;2.60;1.35;;;11.40;99.90;;;;;;4966395;28;20120;-57
2022/04/05 04:11:55;;;;;;;2.78;1.80;;;11.40;99.90;;;;;;4986022;28;20068;-57
2022/04/05 04:14:22;;;;;;;3.95;1.63;;;11.40;99.90;;;;;;4979840;28;20046;-57
2022/04/05 04:16:49;;;;;;;3.03;1.40;;;11.30;99.90;;;;;;4974287;28;20092;-57
2022/04/05 04:19:15;;;;;;;2.78;1.63;;;11.30;99.90;;;;;;4979380;28;20054;-55
2022/04/05 04:21:42;;;;;;;2.10;1.60;;;11.40;99.90;;;;;;4989091;28;20476;-57
2022/04/05 04:24:09;;;;;;;2.42;1.67;;;11.30;99.90;;;;;;4980906;28;20130;-55
2022/04/05 04:26:36;;;;;;;2.13;1.48;;;11.30;99.90;;;;;;4970148;28;20051;-56
2022/04/05 04:29:04;;;;;;;4.82;1.80;;;11.30;99.90;;;;;;4977513;28;20085;-54
2022/04/05 04:31:31;;;;;;;3.88;2.03;;;11.30;99.90;;;;;;4989730;28;20121;-56
2022/04/05 04:33:59;;;;;;;5.10;1.73;;;11.30;99.90;;;;;;4983786;28;20061;-55
2022/04/05 04:36:26;;;;;;;4.70;2.05;;;11.30;99.90;;;;;;4980772;28;20108;-57
2022/04/05 04:38:53;;;;;;;2.75;1.80;;;11.30;99.90;;;;;;4992288;28;20147;-57
2022/04/05 04:41:21;;;;;;;4.90;2.17;;;11.30;99.90;;;;;;4970070;28;20083;-56
2022/04/05 04:43:49;;;;;;;4.43;2.05;;;11.30;99.90;;;;;;4973703;28;20089;-57
2022/04/05 04:46:16;;;;;;;4.38;1.95;;;11.20;99.90;;;;;;4987412;28;20042;-55
2022/04/05 04:48:43;;;;;;;5.40;2.83;;;11.30;99.90;;;;;;4992314;28;20081;-58
2022/04/05 04:51:10;;;;;;;3.67;1.92;;;11.20;99.90;;;;;;4974530;28;20091;-57
2022/04/05 04:53:37;;;;;;;4.90;2.25;;;11.20;99.90;;;;;;4977061;28;20046;-51
2022/04/05 04:56:04;;;;;;;4.78;2.63;;;11.20;99.90;;;;;;4976500;28;20082;-56
2022/04/05 04:58:36;;;;;;;8.38;4.35;;;11.20;99.90;;;;;;4973511;28;20145;-57
2022/04/05 05:01:03;;;;;;;7.95;3.25;;;11.20;99.90;;;;;;4981298;28;20043;-54
2022/04/05 05:03:30;;;;;;;4.57;2.42;;;11.20;99.90;;;;;;4986559;28;20057;-56
2022/04/05 05:05:56;;;;;;;4.72;2.15;;;11.10;99.90;;;;;;4978766;28;20474;-55
2022/04/05 05:08:23;;;;;;;6.57;2.55;;;11.10;99.90;;;;;;4986662;28;20526;-56
2022/04/05 05:10:50;;;;;;;6.50;2.22;;;11.10;99.90;;;;;;4969902;28;20089;-54
2022/04/05 05:13:20;;;;;;;4.07;2.85;;;11.10;99.90;;;;;;4987912;28;20145;-55
2022/04/05 05:15:48;;;;;;;8.20;2.10;;;11.20;99.90;;;;;;4979501;28;20047;-55
2022/04/05 05:18:18;;;;;;;4.03;2.20;;;11.10;99.90;;;;;;4952204;28;20585;-57
2022/04/05 05:20:45;;;;;;;5.45;2.30;;;11.10;99.90;;;;;;4976535;28;20399;-57
2022/04/05 05:23:12;;;;;;;3.40;1.98;;;11.10;99.90;;;;;;4987699;28;20088;-57
2022/04/05 05:25:38;;;;;;;4.35;2.70;;;11.10;99.90;;;;;;4982482;28;20062;-55
2022/04/05 05:28:05;;;;;;;4.07;2.42;;;11.10;99.90;;;;;;4968711;28;20078;-54
2022/04/05 05:30:32;;;;;;;6.30;3.13;;;11.20;99.90;;;;;;4966876;28;20148;-55
2022/04/05 05:32:59;;;;;;;4.07;3.15;;;11.10;99.90;;;;;;4983871;28;20391;-56
2022/04/05 05:35:26;;;;;;;4.57;2.83;;;11.20;99.90;;;;;;4973460;28;20235;-57
2022/04/05 05:37:53;;;;;;;4.55;2.40;;;11.20;99.90;;;;;;4988170;28;20054;-54
2022/04/05 05:40:20;;;;;;;4.32;2.90;;;11.20;99.90;;;;;;4983939;28;20139;-54
2022/04/05 05:42:58;;;;;;;5.85;2.83;;;11.20;99.90;;;;;;4973763;28;20479;-55
2022/04/05 05:45:25;;;;;;;6.32;3.03;;;11.20;99.90;;;;;;4972718;28;20057;-54
2022/04/05 05:47:52;;;;;;;7.20;3.15;;;11.20;99.90;;;;;;4982505;28;20105;-53
2022/04/05 05:50:19;;;;;;;3.53;2.35;;;11.20;99.90;;;;;;4983890;28;20570;-56
2022/04/05 05:52:46;;;;;;;5.40;2.83;;;11.20;99.90;;;;;;4976550;28;20078;-55
2022/04/05 05:55:14;;;;;;;6.28;3.42;;;11.20;99.90;;;;;;4979997;28;20046;-55
2022/04/05 05:57:41;;;;;;;5.45;3.00;;;11.20;99.90;;;;;;4978541;28;20146;-55
2022/04/05 06:00:10;;;;;;;3.97;2.90;;;11.20;99.90;;;;;;4970651;28;20078;-57
2022/04/05 06:02:40;;;;;;;3.85;2.70;;;11.20;99.90;;;;;;4973973;28;20074;-52
2022/04/05 06:05:08;;;;;;;6.35;3.20;;;11.10;99.90;;;;;;4951990;28;20542;-57
2022/04/05 06:07:41;;;;;;;6.35;3.17;;;11.10;99.90;;;;;;4977233;28;20070;-54
2022/04/05 06:10:09;;;;;;;7.05;3.35;;;11.20;99.90;;;;;;4986966;28;20112;-57
2022/04/05 06:12:40;;;;;;;8.07;3.60;;;11.20;99.90;;;;;;4979497;28;20089;-57
2022/04/05 06:15:08;;;;;;;7.65;3.47;;;11.20;99.90;;;;;;4958724;28;20058;-57
2022/04/05 06:17:36;;;;;;;14.88;4.60;;;11.10;99.90;;;;;;4978920;28;20053;-56
2022/04/05 06:20:04;;;;;;;9.80;3.67;;;11.10;99.90;;;;;;4978218;28;20548;-56
2022/04/05 06:22:38;;;;;;;8.35;3.42;;;11.10;99.90;;;;;;4977723;28;20569;-57
2022/04/05 06:25:06;;;;;;;6.38;2.88;;;11.10;99.90;;;;;;4976240;28;20113;-58
2022/04/05 06:27:32;;;;;;;7.70;3.25;;;11.10;99.90;;;;;;4972547;28;20102;-57
2022/04/05 06:29:59;;;;;;;5.13;3.58;;;11.10;99.90;;;;;;4987437;28;20078;-58
2022/04/05 06:32:26;;;;;;;6.65;3.33;;;11.10;99.90;;;;;;4989895;28;20576;-59
2022/04/05 06:34:53;;;;;;;6.03;3.42;;;11.10;99.90;;;;;;4969772;28;20051;-57
2022/04/05 06:37:24;;;;;;;7.57;3.40;;;11.10;99.90;;;;;;4975544;28;20109;-55
2022/04/05 06:39:52;;;;;;;6.30;3.15;;;11.20;99.90;;;;;;4635845;28;9999877;-57
2022/04/05 06:42:19;;;;;;;5.13;3.47;;;11.20;99.90;;;;;;4974763;28;20287;-54
2022/04/05 06:44:46;;;;;;;6.10;3.20;;;11.20;99.90;;;;;;4976876;28;20490;-56
2022/04/05 06:47:12;;;;;;;4.63;2.83;;;11.20;99.90;;;;;;4970654;28;20061;-54
2022/04/05 06:49:40;;;;;;;7.38;3.08;;;11.20;99.90;;;;;;4980415;28;20081;-56
2022/04/05 06:52:07;;;;;;;6.25;3.50;;;11.20;99.90;;;;;;4984764;28;20370;-57
2022/04/05 06:54:34;;;;;;;7.38;4.50;;;11.20;99.90;;;;;;4990017;28;20584;-57
2022/04/05 06:57:00;;;;;;;5.03;3.10;;;11.30;99.90;;;;;;4989077;28;20086;-57
2022/04/05 06:59:27;;;;;;;12.50;3.55;;;11.30;99.90;;;;;;4982653;28;20046;-57
2022/04/05 07:01:54;;;;;;;7.05;3.22;;;11.30;99.90;;;;;;4971914;28;20043;-57
2022/04/05 07:04:20;;;;;;;5.63;3.30;;;11.40;99.90;;;;;;4974818;28;20097;-57
2022/04/05 07:06:47;;;;;;;6.15;3.03;;;11.40;99.90;;;;;;4975728;28;20039;-58
2022/04/05 07:09:14;;;;;;;6.97;3.10;;;11.40;99.90;;;;;;4984461;28;20303;-54
2022/04/05 07:11:41;;;;;;;7.93;2.90;;;11.40;99.90;;;;;;4970809;28;20102;-57
2022/04/05 07:14:08;;;;;;;15.82;7.38;;;11.40;99.90;;;;;;4974748;28;20086;-57
2022/04/05 07:16:34;;;;;;;5.28;3.03;;;11.40;99.90;;;;;;4986291;28;20145;-58
2022/04/05 07:19:01;;;;;;;7.65;3.47;;;11.50;99.90;;;;;;4960983;28;20134;-56
2022/04/05 07:21:28;;;;;;;9.60;3.05;;;11.50;99.90;;;;;;4969203;28;20046;-56
2022/04/05 07:23:58;;;;;;;4.90;2.83;;;11.60;99.90;;;;;;4966834;28;20206;-55
2022/04/05 07:26:25;;;;;;;12.93;3.67;;;11.50;99.90;;;;;;4971298;28;20106;-64
2022/04/05 07:28:52;;;;;;;10.30;3.72;;;11.60;99.90;;;;;;4967196;28;20537;-58
2022/04/05 07:31:25;;;;;;;9.30;2.60;;;11.60;99.90;;;;;;4957374;28;20097;-58
2022/04/05 07:33:52;;;;;;;8.27;2.60;;;11.50;99.90;;;;;;4955584;28;20158;-57
2022/04/05 07:36:19;;;;;;;5.60;2.80;;;11.60;99.90;;;;;;4961738;28;20078;-56
2022/04/05 07:38:45;;;;;;;10.43;2.72;;;11.60;99.90;;;;;;4961458;28;20050;-58
2022/04/05 07:41:13;;;;;;;9.40;3.20;;;11.60;99.90;;;;;;4960606;28;20048;-56
2022/04/05 07:43:40;;;;;;;9.73;3.53;;;11.60;99.90;;;;;;4967849;28;20097;-58
2022/04/05 07:46:06;;;;;;;6.68;2.83;;;11.60;99.90;;;;;;4962276;28;20149;-58
2022/04/05 07:48:33;;;;;;;7.60;3.17;;;11.60;99.90;;;;;;4951477;28;20057;-57
2022/04/05 07:51:01;;;;;;;12.15;3.47;;;11.70;99.90;;;;;;4950409;28;20138;-57
2022/04/05 07:53:28;;;;;;;8.27;3.60;;;11.70;99.90;;;;;;4953658;28;20051;-57
2022/04/05 07:55:56;;;;;;;9.02;3.60;;;11.80;99.90;;;;;;4960275;28;20082;-57
2022/04/05 07:58:24;;;;;;;12.68;4.05;;;11.70;99.90;;;;;;4946620;28;20055;-55
2022/04/05 08:00:51;;;;;;;10.07;3.65;;;11.80;99.90;;;;;;4953573;28;20054;-59
2022/04/05 08:03:18;;;;;;;5.43;3.05;;;11.70;99.90;;;;;;4958892;28;20055;-58
2022/04/05 08:05:46;;;;;;;10.43;3.10;;;11.80;99.90;;;;;;4951142;28;20523;-56
2022/04/05 08:08:12;;;;;;;6.30;3.10;;;11.80;99.90;;;;;;4967557;28;20140;-59
2022/04/05 08:11:00;;;;;;;9.13;2.95;;;11.70;99.90;;;;;;4964117;28;20201;-60
2022/04/05 08:13:26;;;;;;;7.18;3.00;;;11.80;99.90;;;;;;4967851;28;20078;-58
2022/04/05 08:15:54;;;;;;;9.25;2.75;;;11.80;99.90;;;;;;4966912;28;20093;-59
2022/04/05 08:18:21;;;;;;;9.57;3.13;;;11.80;99.90;;;;;;4985823;28;20077;-60
2022/04/05 08:20:48;;;;;;;12.55;3.45;;;11.80;99.90;;;;;;4983551;28;20145;-59
2022/04/05 08:23:15;;;;;;;7.65;3.08;;;11.90;99.90;;;;;;4982850;28;20465;-58
2022/04/05 08:25:42;;;;;;;8.40;3.15;;;11.90;99.90;;;;;;4983114;28;20884;-59
2022/04/05 08:28:08;;;;;;;3.97;2.30;;;11.90;99.90;;;;;;4972352;28;20137;-59
2022/04/05 08:30:35;;;;;;;6.78;2.88;;;11.90;99.90;;;;;;4971207;28;20141;-59
2022/04/05 08:33:02;;;;;;;9.05;3.72;;;11.90;99.90;;;;;;4978229;28;20061;-59
2022/04/05 08:35:29;;;;;;;8.40;2.72;;;12.00;99.90;;;;;;4983161;28;20106;-60
2022/04/05 08:37:56;;;;;;;17.08;3.08;;;12.00;99.90;;;;;;4986887;28;20133;-62
2022/04/05 08:40:23;;;;;;;10.35;2.88;;;12.00;99.90;;;;;;4984852;28;20054;-59
2022/04/05 08:42:51;;;;;;;6.70;2.45;;;12.10;99.90;;;;;;4978097;28;20760;-60
2022/04/05 08:45:19;;;;;;;7.15;3.03;;;12.00;99.90;;;;;;4967515;28;20085;-59
2022/04/05 08:47:55;;;;;;;11.18;3.33;;;12.00;99.90;;;;;;4975472;28;20049;-60
2022/04/05 08:50:26;;;;;;;6.80;2.75;;;12.00;99.90;;;;;;4986404;28;20478;-60
2022/04/05 08:52:57;;;;;;;4.80;1.98;;;12.10;99.90;;;;;;4982052;28;20057;-59
2022/04/05 08:55:24;;;;;;;8.57;2.33;;;12.10;99.90;;;;;;4968115;28;20086;-61
2022/04/05 08:57:57;;;;;;;5.57;2.20;;;12.20;99.90;;;;;;4965959;28;20134;-59
2022/04/05 09:00:24;;;;;;;5.35;1.90;;;12.30;99.90;;;;;;4950199;28;20081;-59
2022/04/05 09:02:58;;;;;;;10.30;1.75;;;12.30;99.90;;;;;;4979339;28;20161;-60
2022/04/05 09:05:26;;;;;;;8.77;1.42;;;12.10;99.90;;;;;;4980005;28;20417;-58
2022/04/05 09:08:20;;;;;;;5.60;1.25;;;12.10;99.90;;;;;;4973833;28;20055;-59
2022/04/05 09:11:12;;;;;;;8.75;2.15;;;12.10;99.90;;;;;;4986731;28;20046;-57
2022/04/05 09:13:39;;;;;;;4.10;1.13;;;12.10;99.90;;;;;;4973924;28;20057;-59
2022/04/05 09:16:08;;;;;;;8.48;1.45;;;12.20;99.90;;;;;;4948573;28;20109;-61
2022/04/05 09:18:36;;;;;;;5.88;1.25;;;12.20;99.90;;;;;;4972388;28;20046;-60
2022/04/05 09:21:09;;;;;;;5.97;1.27;;;12.20;99.90;;;;;;4984691;28;20551;-60
2022/04/05 09:23:43;;;;;;;5.38;1.33;;;12.40;99.90;;;;;;4979608;28;20873;-59
2022/04/05 09:26:11;;;;;;;14.20;2.22;;;12.40;99.90;;;;;;4965171;28;20066;-60
2022/04/05 09:28:46;;;;;;;1.90;1.10;;;12.40;99.90;;;;;;4969159;28;20138;-59
2022/04/05 09:31:15;;;;;;;6.22;1.80;;;12.20;99.90;;;;;;4985099;28;20060;-60
2022/04/05 09:34:06;;;;;;;15.95;2.30;;;12.10;99.90;;;;;;4981301;28;20062;-59
2022/04/05 09:36:37;;;;;;;9.63;2.40;;;12.20;99.90;;;;;;4985638;28;20133;-59
2022/04/05 09:39:30;;;;;;;5.70;1.73;;;12.30;99.90;;;;;;4979340;28;20054;-60
2022/04/05 09:42:02;;;;;;;6.10;2.33;;;12.30;99.90;;;;;;4962723;28;20078;-60
2022/04/05 09:44:32;;;;;;;9.40;3.20;;;12.30;99.90;;;;;;4965336;28;20463;-59
2022/04/05 09:47:25;;;;;;;6.85;1.80;;;12.30;99.90;;;;;;4973778;28;20497;-60
2022/04/05 09:49:53;;;;;;;6.20;2.17;;;12.30;99.90;;;;;;4971673;28;20129;-60
2022/04/05 09:52:35;;;;;;;10.68;3.45;;;12.40;99.90;;;;;;4981586;28;20121;-59
2022/04/05 09:55:12;;;;;;;8.88;2.10;;;12.30;99.90;;;;;;4981635;28;20558;-59
2022/04/05 09:57:39;;;;;;;14.20;2.03;;;12.50;99.90;;;;;;4973264;28;20086;-59
2022/04/05 10:00:12;;;;;;;11.43;1.95;;;12.70;99.90;;;;;;4977535;28;20128;-59
2022/04/05 10:02:59;;;;;;;4.38;1.60;;;12.90;99.90;;;;;;4974251;28;20292;-59
2022/04/05 10:05:27;;;;;;;8.02;1.88;;;13.00;99.90;;;;;;4975102;28;20129;-60
2022/04/05 10:07:55;;;;;;;13.85;1.85;;;13.20;99.90;;;;;;4977221;28;20055;-63
2022/04/05 10:10:22;;;;;;;11.70;1.90;;;13.20;99.90;;;;;;4953017;28;20133;-61
2022/04/05 10:12:48;;;;;;;8.68;1.80;;;13.20;99.90;;;;;;4977283;28;20054;-60
2022/04/05 10:15:15;;;;;;;7.60;1.98;;;13.30;99.90;;;;;;4974694;28;20096;-60
2022/04/05 10:17:44;;;;;;;4.88;1.58;;;13.50;99.90;;;;;;4976430;28;20133;-60
2022/04/05 10:20:12;;;;;;;7.68;2.03;;;13.60;99.90;;;;;;4962046;28;20109;-60
2022/04/05 10:22:42;;;;;;;9.15;1.95;;;13.70;99.90;;;;;;4976322;28;20047;-60
2022/04/05 10:25:09;;;;;;;11.70;2.05;;;13.70;99.90;;;;;;4956898;28;20054;-60
2022/04/05 10:27:36;;;;;;;8.88;1.95;;;13.60;99.90;;;;;;4969788;28;20117;-60
2022/04/05 10:30:05;;;;;;;13.98;2.28;;;13.60;99.90;;;;;;4977143;28;20050;-59
2022/04/05 10:32:46;;;;;;;10.73;2.47;;;13.60;99.90;;;;;;4960116;28;20050;-60
2022/04/05 10:35:13;;;;;;;6.88;2.58;;;13.60;99.90;;;;;;4976427;28;20562;-63
2022/04/05 10:37:40;;;;;;;21.80;3.28;;;13.60;99.90;;;;;;4966990;28;20113;-59
2022/04/05 10:40:10;;;;;;;11.90;3.08;;;13.70;99.90;;;;;;4976291;28;20291;-60
2022/04/05 10:42:38;;;;;;;9.27;1.92;;;13.80;99.90;;;;;;4975312;28;20145;-60
2022/04/05 10:45:12;;;;;;;8.40;2.42;;;13.70;99.90;;;;;;4971149;28;20137;-60
2022/04/05 10:48:12;;;;;;;16.40;2.00;;;13.70;99.90;;;;;;4975827;28;20258;-60
2022/04/05 10:51:00;;;;;;;6.22;1.90;;;13.80;99.90;;;;;;4973594;28;20051;-60
2022/04/05 10:53:31;;;;;;;12.82;2.35;;;13.70;99.90;;;;;;4972147;28;20526;-60
2022/04/05 10:56:06;;;;;;;8.77;2.03;;;13.70;99.90;;;;;;4977134;28;20039;-59
2022/04/05 10:58:34;;;;;;;13.63;2.65;;;13.70;99.90;;;;;;4983976;28;20461;-60
2022/04/05 11:01:23;;;;;;;9.20;2.83;;;13.90;99.90;;;;;;4958548;28;20089;-60
2022/04/05 11:04:13;;;;;;;5.00;2.13;;;13.90;99.90;;;;;;4979894;28;20511;-59
2022/04/05 11:07:02;;;;;;;10.27;2.20;;;14.00;99.90;;;;;;4978156;28;20133;-59
2022/04/05 11:09:33;;;;;;;7.03;2.08;;;14.00;99.90;;;;;;4967372;28;20502;-59
2022/04/05 11:12:15;;;;;;;8.57;2.63;;;14.10;99.90;;;;;;4965810;28;20047;-59
2022/04/05 11:14:52;;;;;;;10.35;2.22;;;14.00;99.40;;;;;;4966206;28;20134;-60
2022/04/05 11:17:20;;;;;;;8.52;1.92;;;14.00;99.90;;;;;;4977174;28;20580;-59
2022/04/05 11:19:52;;;;;;;17.55;3.20;;;14.00;99.90;;;;;;4957764;28;20104;-59
2022/04/05 11:22:22;;;;;;;15.13;3.30;;;14.00;99.90;;;;;;4961779;28;20045;-59
2022/04/05 11:25:28;;;;;;;6.53;2.20;;;14.00;99.80;;;;;;4980935;28;20054;-58
2022/04/05 11:27:55;;;;;;;13.07;2.70;;;13.70;99.90;;;;;;4966311;28;20422;-59
2022/04/05 11:30:56;;;;;;;5.97;2.15;;;13.70;99.90;;;;;;4966017;28;20058;-58
2022/04/05 11:33:32;;;;;;;17.13;2.97;;;13.50;99.50;;;;;;4978987;28;20109;-59
2022/04/05 11:36:13;;;;;;;13.50;2.20;;;13.60;99.90;;;;;;4971775;28;20050;-59
2022/04/05 11:38:46;;;;;;;11.75;2.63;;;13.60;99.90;;;;;;4978465;28;20136;-59
2022/04/05 11:41:21;;;;;;;7.47;2.15;;;13.50;99.90;;;;;;4978494;28;20138;-59
2022/04/05 11:43:53;;;;;;;10.32;2.20;;;13.50;99.90;;;;;;4984770;28;20058;-59
2022/04/05 11:46:28;;;;;;;6.97;2.45;;;13.60;99.90;;;;;;4640548;28;10000171;-61
2022/04/05 11:48:57;;;;;;;9.57;2.47;;;13.60;99.90;;;;;;4978793;28;20095;-59
2022/04/05 11:51:28;;;;;;;9.57;2.70;;;13.70;99.90;;;;;;4970119;28;20138;-60
2022/04/05 11:54:07;;;;;;;7.40;2.37;;;13.70;99.30;;;;;;4974172;28;20129;-59
2022/04/05 11:56:35;;;;;;;11.40;3.08;;;13.60;99.00;;;;;;4975271;28;20304;-60
2022/04/05 11:59:03;;;;;;;10.70;2.72;;;13.60;99.90;;;;;;4978363;28;20572;-59
2022/04/05 12:01:36;;;;;;;14.50;2.17;;;13.70;99.40;;;;;;4978682;28;20114;-59
2022/04/05 12:04:07;;;;;;;10.68;2.65;;;13.70;99.30;;;;;;4982371;28;20066;-58
2022/04/05 12:06:44;;;;;;;10.55;2.45;;;13.70;99.50;;;;;;4985209;28;20054;-59
2022/04/05 12:09:12;;;;;;;5.18;2.35;;;13.70;99.80;;;;;;4982519;28;20061;-57
2022/04/05 12:11:40;;;;;;;11.15;2.80;;;13.90;99.80;;;;;;4967179;28;20514;-58
2022/04/05 12:14:11;;;;;;;11.82;2.50;;;14.00;99.60;;;;;;4970801;28;20062;-58
2022/04/05 12:16:48;;;;;;;11.05;2.85;;;14.10;99.80;;;;;;4969112;28;20774;-58
2022/04/05 12:19:26;;;;;;;9.85;2.70;;;14.10;99.10;;;;;;4981880;28;20050;-60
2022/04/05 12:22:05;;;;;;;21.52;3.83;;;14.10;98.80;;;;;;4964793;28;20061;-62
2022/04/05 12:24:34;;;;;;;10.77;2.60;;;14.10;99.70;;;;;;4970383;28;20046;-58
2022/04/05 12:27:01;;;;;;;6.78;2.95;;;13.90;99.40;;;;;;4985072;28;20078;-58
2022/04/05 12:29:29;;;;;;;19.08;2.67;;;13.80;99.50;;;;;;4980820;28;20149;-58
2022/04/05 12:32:06;;;;;;;10.43;2.97;;;13.80;99.00;;;;;;4980921;28;20074;-59
2022/04/05 12:34:33;;;;;;;8.48;2.65;;;13.80;99.50;;;;;;4964988;28;20513;-58
2022/04/05 12:37:02;;;;;;;29.77;3.72;;;13.90;99.80;;;;;;4977991;28;20085;-59
2022/04/05 12:39:30;;;;;;;11.57;2.33;;;13.90;99.90;;;;;;4982582;28;20054;-59
2022/04/05 12:42:01;;;;;;;8.60;2.85;;;13.80;99.40;;;;;;4975130;28;20046;-59
2022/04/05 12:44:30;;;;;;;10.75;2.50;;;13.70;99.50;;;;;;4973660;28;20094;-58
2022/04/05 12:46:58;;;;;;;18.75;3.83;;;13.60;99.60;;;;;;4974315;28;20133;-60
2022/04/05 12:49:34;;;;;;;18.85;3.38;;;13.70;99.90;;;;;;4976733;28;20147;-60
2022/04/05 12:52:29;;;;;;;12.88;3.78;;;13.70;99.80;;;;;;4960704;28;20043;-59
2022/04/05 12:54:56;;;;;;;12.55;3.03;;;13.80;99.40;;;;;;4956892;28;20051;-59
2022/04/05 12:57:31;;;;;;;10.07;2.90;;;13.90;99.90;;;;;;4978166;28;20620;-57